Time;durP1;ratioP1;P1;durP2;ratioP2;P2;SDS_P1;SDS_P2;PMS_P1;PMS_P2;Temp;Humidity;BMP_temperature;BMP_pressure;BME280_temperature;BME280_humidity;BME280_pressure;Samples;Min_cycle;Max_cycle;Signal;HPM_P1;HPM_P2
2023/04/27 00:01:50;;;;;;;10.90;5.00;;;;;;;3.95;100.00;101900.75;5313884;28;20055;-66
2023/04/27 00:04:21;;;;;;;11.18;4.95;;;;;;;3.81;100.00;101911.75;5303348;28;20030;-67
2023/04/27 00:06:53;;;;;;;8.23;5.30;;;;;;;3.84;100.00;101909.88;5305194;28;20548;-66
2023/04/27 00:09:24;;;;;;;11.23;5.10;;;;;;;3.85;100.00;101913.38;5308006;28;20024;-66
2023/04/27 00:11:56;;;;;;;7.55;4.50;;;;;;;3.78;100.00;101907.44;5306243;28;20036;-66
2023/04/27 00:14:27;;;;;;;9.75;4.85;;;;;;;3.77;100.00;101899.56;5308757;28;20051;-66
2023/04/27 00:16:59;;;;;;;11.55;5.10;;;;;;;3.76;100.00;101905.75;5305666;28;20040;-66
2023/04/27 00:19:30;;;;;;;11.05;5.10;;;;;;;3.71;100.00;101906.75;5312015;28;20409;-67
2023/04/27 00:22:02;;;;;;;14.07;5.18;;;;;;;3.70;100.00;101914.72;5310522;28;20027;-67
2023/04/27 00:24:33;;;;;;;9.25;4.90;;;;;;;3.78;100.00;101906.56;5317919;28;20556;-66
2023/04/27 00:27:05;;;;;;;9.85;4.75;;;;;;;3.65;100.00;101908.72;5309362;28;20059;-66
2023/04/27 00:29:41;;;;;;;11.50;5.32;;;;;;;3.65;100.00;101917.50;5303501;28;20045;-67
2023/04/27 00:32:12;;;;;;;9.35;6.05;;;;;;;3.59;100.00;101912.41;5312846;28;20039;-66
2023/04/27 00:34:44;;;;;;;9.75;4.88;;;;;;;3.57;100.00;101916.88;5304522;28;20031;-67
2023/04/27 00:37:15;;;;;;;8.80;4.93;;;;;;;3.58;100.00;101910.69;5306743;28;20027;-66
2023/04/27 00:39:47;;;;;;;12.07;6.13;;;;;;;3.60;100.00;101914.13;5306017;28;20159;-67
2023/04/27 00:42:18;;;;;;;12.73;5.25;;;;;;;3.54;100.00;101906.41;5315045;28;20027;-66
2023/04/27 00:44:50;;;;;;;10.50;5.93;;;;;;;3.52;100.00;101906.44;5308712;28;20027;-66
2023/04/27 00:47:21;;;;;;;11.93;5.25;;;;;;;3.52;100.00;101906.44;5312856;28;20031;-66
2023/04/27 00:49:53;;;;;;;11.73;5.80;;;;;;;3.50;100.00;101905.63;5314122;28;20051;-66
2023/04/27 00:52:24;;;;;;;10.45;4.85;;;;;;;3.39;100.00;101902.44;5312841;27;20382;-66
2023/04/27 00:54:56;;;;;;;10.82;5.25;;;;;;;3.41;100.00;101905.03;5307211;27;20042;-66
2023/04/27 00:57:27;;;;;;;9.95;5.40;;;;;;;3.43;100.00;101903.22;5309983;27;20031;-66
2023/04/27 00:59:59;;;;;;;10.02;5.38;;;;;;;3.40;100.00;101908.59;5311122;27;20447;-66
2023/04/27 01:02:31;;;;;;;9.68;5.82;;;;;;;3.33;100.00;101906.13;5302505;27;20089;-66
2023/04/27 01:05:03;;;;;;;10.50;6.13;;;;;;;3.28;100.00;101901.88;5270168;28;20090;-66
2023/04/27 01:07:39;;;;;;;8.95;5.45;;;;;;;3.21;100.00;101908.28;5267737;28;20036;-67
2023/04/27 01:10:10;;;;;;;11.57;5.47;;;;;;;3.21;100.00;101897.72;5297483;28;20565;-66
2023/04/27 01:12:42;;;;;;;10.20;5.55;;;;;;;3.17;100.00;101904.00;5266342;28;20028;-66
2023/04/27 01:15:13;;;;;;;12.18;5.70;;;;;;;3.12;100.00;101904.97;5265184;28;20417;-66
2023/04/27 01:17:45;;;;;;;10.95;5.60;;;;;;;3.05;100.00;101906.06;5268640;28;20481;-66
2023/04/27 01:20:16;;;;;;;11.88;5.55;;;;;;;3.11;100.00;101908.53;5272807;28;20119;-66
2023/04/27 01:22:47;;;;;;;11.00;5.38;;;;;;;3.02;100.00;101907.91;5271734;28;20048;-66
2023/04/27 01:25:19;;;;;;;9.63;5.35;;;;;;;2.98;100.00;101908.91;5274525;28;20029;-66
2023/04/27 01:27:50;;;;;;;14.93;6.95;;;;;;;2.94;100.00;101911.63;5270345;28;20033;-66
2023/04/27 01:30:22;;;;;;;11.15;5.28;;;;;;;2.94;100.00;101918.69;5265333;28;20047;-66
2023/04/27 01:32:53;;;;;;;13.60;4.97;;;;;;;2.85;100.00;101911.00;5266273;28;20095;-66
2023/04/27 01:35:25;;;;;;;10.10;5.57;;;;;;;2.82;100.00;101914.59;5266030;28;20116;-67
2023/04/27 01:37:56;;;;;;;11.23;5.70;;;;;;;2.87;100.00;101911.84;5273791;28;20174;-66
2023/04/27 01:40:28;;;;;;;11.30;6.40;;;;;;;2.77;100.00;101905.94;5270721;28;20573;-66
2023/04/27 01:42:59;;;;;;;10.20;5.80;;;;;;;2.73;100.00;101899.91;5268566;28;20419;-67
2023/04/27 01:45:31;;;;;;;9.80;5.97;;;;;;;2.72;100.00;101907.84;5266813;28;20036;-66
2023/04/27 01:48:02;;;;;;;14.45;5.95;;;;;;;2.67;100.00;101901.84;5264143;28;20044;-66
2023/04/27 01:50:34;;;;;;;12.70;6.28;;;;;;;2.62;100.00;101909.84;5261505;28;20067;-66
2023/04/27 01:53:05;;;;;;;10.20;5.93;;;;;;;2.57;100.00;101902.97;5268601;28;20411;-66
2023/04/27 01:55:36;;;;;;;12.32;6.03;;;;;;;2.59;100.00;101898.53;5264209;28;20068;-66
2023/04/27 01:58:08;;;;;;;10.55;5.70;;;;;;;2.60;100.00;101897.63;5266336;28;20121;-66
2023/04/27 02:00:39;;;;;;;12.60;6.03;;;;;;;2.50;100.00;101900.50;5265998;28;20028;-66
2023/04/27 02:03:11;;;;;;;12.25;6.35;;;;;;;2.45;100.00;101899.75;5267720;28;20052;-66
2023/04/27 02:05:42;;;;;;;10.35;6.32;;;;;;;2.50;100.00;101902.28;5260563;28;20056;-67
2023/04/27 02:08:14;;;;;;;10.95;6.10;;;;;;;2.55;100.00;101906.53;5271580;28;20401;-66
2023/04/27 02:10:45;;;;;;;12.55;6.38;;;;;;;2.54;100.00;101898.66;5271444;28;20028;-66
2023/04/27 02:13:16;;;;;;;11.95;6.00;;;;;;;2.53;100.00;101897.78;5271458;28;20024;-66
2023/04/27 02:15:48;;;;;;;11.43;6.18;;;;;;;2.45;100.00;101897.09;5269689;28;20047;-66
2023/04/27 02:18:19;;;;;;;10.73;6.15;;;;;;;2.42;100.00;101898.97;5271288;28;20035;-66
2023/04/27 02:20:50;;;;;;;10.90;6.07;;;;;;;2.48;100.00;101891.78;5268852;28;20509;-66
2023/04/27 02:23:22;;;;;;;11.75;6.07;;;;;;;2.39;100.00;101894.63;5268711;28;20536;-66
2023/04/27 02:25:53;;;;;;;13.50;6.50;;;;;;;2.38;100.00;101894.66;5266716;28;20032;-66
2023/04/27 02:28:25;;;;;;;12.43;6.45;;;;;;;2.33;100.00;101889.53;5273868;28;20418;-67
2023/04/27 02:30:56;;;;;;;11.18;6.30;;;;;;;2.29;100.00;101874.72;5268291;28;20040;-66
2023/04/27 02:33:28;;;;;;;12.52;6.07;;;;;;;2.39;100.00;101877.97;5272461;28;20103;-67
2023/04/27 02:35:59;;;;;;;13.63;6.15;;;;;;;2.26;100.00;101882.69;5270830;28;20082;-66
2023/04/27 02:38:30;;;;;;;12.77;6.57;;;;;;;2.21;100.00;101877.53;5274934;28;20028;-66
2023/04/27 02:41:02;;;;;;;12.77;6.28;;;;;;;2.20;100.00;101877.56;5269855;28;20032;-66
2023/04/27 02:43:33;;;;;;;11.68;6.07;;;;;;;2.16;100.00;101877.63;5274612;28;20028;-66
2023/04/27 02:46:05;;;;;;;12.20;6.25;;;;;;;2.09;100.00;101881.34;5271090;28;20063;-66
2023/04/27 02:48:36;;;;;;;14.32;7.15;;;;;;;2.07;100.00;101879.63;5274768;28;20458;-66
2023/04/27 02:51:07;;;;;;;12.27;6.70;;;;;;;2.07;100.00;101877.91;5270774;28;20037;-66
2023/04/27 02:53:39;;;;;;;13.05;6.97;;;;;;;2.05;100.00;101882.34;5274491;28;20493;-66
2023/04/27 02:56:10;;;;;;;15.40;6.95;;;;;;;1.99;100.00;101882.47;5271429;28;20386;-66
2023/04/27 02:58:42;;;;;;;12.65;6.30;;;;;;;1.96;100.00;101883.41;5268111;28;20115;-66
2023/04/27 03:01:16;;;;;;;12.52;6.90;;;;;;;1.91;100.00;101877.38;5267887;28;20157;-66
2023/04/27 03:03:48;;;;;;;11.75;6.75;;;;;;;1.89;100.00;101871.28;5267479;28;20075;-66
2023/04/27 03:06:19;;;;;;;11.95;7.00;;;;;;;1.88;100.00;101876.59;5270874;28;20032;-66
2023/04/27 03:08:51;;;;;;;15.13;6.97;;;;;;;1.89;100.00;101873.06;5268237;28;20386;-66
2023/04/27 03:11:22;;;;;;;15.80;6.85;;;;;;;1.89;100.00;101871.28;5300004;28;20055;-66
2023/04/27 03:13:53;;;;;;;11.45;6.63;;;;;;;1.83;100.00;101876.69;5271112;28;20024;-66
2023/04/27 03:16:25;;;;;;;11.68;6.70;;;;;;;1.91;100.00;101874.75;5271795;28;20028;-66
2023/04/27 03:18:56;;;;;;;12.15;6.85;;;;;;;1.82;100.00;101876.72;5269953;28;20024;-68
2023/04/27 03:21:28;;;;;;;13.18;7.68;;;;;;;1.90;100.00;101880.06;5267727;28;20089;-66
2023/04/27 03:23:59;;;;;;;13.25;6.85;;;;;;;1.81;100.00;101889.03;5267142;28;20490;-66
2023/04/27 03:26:31;;;;;;;10.90;6.95;;;;;;;1.83;100.00;101883.75;5269548;28;20098;-66
2023/04/27 03:29:02;;;;;;;14.48;6.88;;;;;;;1.75;100.00;101886.53;5266078;28;20042;-66
2023/04/27 03:31:33;;;;;;;10.85;6.75;;;;;;;1.70;100.00;101884.00;5262907;28;20494;-66
2023/04/27 03:34:05;;;;;;;12.65;6.93;;;;;;;1.76;100.00;101885.63;5271471;28;20020;-66
2023/04/27 03:36:36;;;;;;;14.25;6.93;;;;;;;1.69;100.00;101892.81;5269414;28;20294;-66
2023/04/27 03:39:08;;;;;;;13.30;7.15;;;;;;;1.67;100.00;101899.00;5267654;28;20028;-66
2023/04/27 03:41:39;;;;;;;13.30;7.57;;;;;;;1.63;100.00;101897.31;5261914;28;20391;-66
2023/04/27 03:44:10;;;;;;;12.23;7.10;;;;;;;1.60;100.00;101902.69;5262343;28;20517;-66
2023/04/27 03:46:42;;;;;;;12.82;7.50;;;;;;;1.66;100.00;101894.63;5267459;28;20058;-66
2023/04/27 03:49:13;;;;;;;12.18;7.65;;;;;;;1.59;100.00;101904.41;5264304;28;20090;-66
2023/04/27 03:51:44;;;;;;;15.20;7.43;;;;;;;1.54;100.00;101898.41;5263238;28;20497;-67
2023/04/27 03:54:16;;;;;;;17.38;7.47;;;;;;;1.59;100.00;101891.25;5262980;28;20013;-67
2023/04/27 03:56:47;;;;;;;13.00;6.70;;;;;;;1.51;100.00;101893.22;5263871;28;20035;-66
2023/04/27 03:59:19;;;;;;;12.23;7.30;;;;;;;1.50;100.00;101904.66;5262499;28;20025;-67
2023/04/27 04:01:50;;;;;;;12.27;7.18;;;;;;;1.49;100.00;101903.75;5264358;28;20024;-66
2023/04/27 04:04:22;;;;;;;14.80;7.68;;;;;;;1.45;100.00;101902.09;5266305;28;20056;-66
2023/04/27 04:06:53;;;;;;;12.38;7.35;;;;;;;1.47;100.00;101899.44;5262495;28;20386;-66
2023/04/27 04:09:25;;;;;;;12.73;7.10;;;;;;;1.50;100.00;101904.66;5263574;28;20037;-66
2023/04/27 04:11:56;;;;;;;13.70;7.63;;;;;;;1.51;100.00;101901.94;5263986;28;20028;-66
2023/04/27 04:14:28;;;;;;;13.20;7.53;;;;;;;1.40;100.00;101895.19;5269576;28;20025;-66
2023/04/27 04:16:59;;;;;;;14.30;7.88;;;;;;;1.46;100.00;101895.06;5263457;28;20056;-66
2023/04/27 04:19:32;;;;;;;14.10;8.15;;;;;;;1.42;100.00;101910.06;5269295;28;20029;-65
2023/04/27 04:22:04;;;;;;;14.32;7.78;;;;;;;1.39;100.00;101907.50;5262302;28;20470;-66
2023/04/27 04:24:36;;;;;;;15.13;8.38;;;;;;;1.41;100.00;101907.47;5268358;28;20021;-65
2023/04/27 04:27:08;;;;;;;12.98;7.80;;;;;;;1.40;100.00;101910.97;5265188;28;20020;-66
2023/04/27 04:29:39;;;;;;;14.02;7.72;;;;;;;1.44;100.00;101913.53;5265271;28;20032;-65
2023/04/27 04:32:11;;;;;;;13.02;7.63;;;;;;;1.42;100.00;101919.69;5270019;28;20032;-66
2023/04/27 04:34:42;;;;;;;13.35;7.75;;;;;;;1.41;100.00;101908.31;5269800;28;20090;-66
2023/04/27 04:37:13;;;;;;;14.88;8.05;;;;;;;1.44;100.00;101916.16;5264275;28;20028;-66
2023/04/27 04:39:45;;;;;;;12.38;7.75;;;;;;;1.32;100.00;101925.19;5278054;28;20035;-66
2023/04/27 04:42:16;;;;;;;13.02;7.32;;;;;;;1.36;100.00;101926.84;5273895;28;20051;-66
2023/04/27 04:44:48;;;;;;;15.98;8.02;;;;;;;1.36;100.00;101932.09;5271985;28;20297;-66
2023/04/27 04:47:20;;;;;;;13.85;8.13;;;;;;;1.35;100.00;101932.97;5269759;28;20152;-65
2023/04/27 04:49:51;;;;;;;14.20;7.68;;;;;;;1.32;100.00;101940.94;5275156;28;20016;-66
2023/04/27 04:52:23;;;;;;;14.10;7.63;;;;;;;1.33;100.00;101929.53;5271201;28;20056;-65
2023/04/27 04:54:54;;;;;;;17.02;7.30;;;;;;;1.41;100.00;101925.88;5271516;28;20036;-66
2023/04/27 04:57:25;;;;;;;14.82;7.93;;;;;;;1.39;100.00;101938.19;5262971;28;20029;-65
2023/04/27 04:59:57;;;;;;;15.43;8.20;;;;;;;1.36;100.00;101939.97;5266540;28;20024;-65
2023/04/27 05:02:28;;;;;;;13.80;7.40;;;;;;;1.45;100.00;101933.66;5269682;28;20071;-65
2023/04/27 05:05:00;;;;;;;15.38;7.93;;;;;;;1.45;100.00;101930.16;5276083;28;20025;-66
2023/04/27 05:07:32;;;;;;;15.60;8.40;;;;;;;1.43;100.00;101934.59;5273091;28;20031;-66
2023/04/27 05:10:04;;;;;;;14.57;7.22;;;;;;;1.46;100.00;101927.50;5275270;28;20523;-65
2023/04/27 05:12:35;;;;;;;14.35;7.60;;;;;;;1.45;100.00;101930.16;5266145;28;20028;-66
2023/04/27 05:15:07;;;;;;;14.40;7.60;;;;;;;1.45;100.00;101938.91;5265505;28;20478;-65
2023/04/27 05:17:39;;;;;;;13.88;8.23;;;;;;;1.47;100.00;101936.25;5267687;28;20033;-66
2023/04/27 05:20:10;;;;;;;17.92;8.20;;;;;;;1.54;100.00;101940.50;5266744;28;20378;-66
2023/04/27 05:22:42;;;;;;;18.50;8.88;;;;;;;1.51;100.00;101940.53;5273275;28;20564;-66
2023/04/27 05:25:13;;;;;;;17.02;8.43;;;;;;;1.61;100.00;101941.22;5262803;28;20651;-66
2023/04/27 05:27:44;;;;;;;16.55;8.65;;;;;;;1.67;100.00;101949.84;5267380;28;20033;-65
2023/04/27 05:30:16;;;;;;;15.02;7.70;;;;;;;1.67;100.00;101949.84;5263852;28;20519;-66
2023/04/27 05:32:47;;;;;;;14.30;7.93;;;;;;;1.69;100.00;101945.44;5265978;28;20035;-66
2023/04/27 05:35:19;;;;;;;14.48;7.65;;;;;;;1.79;100.00;101947.88;5265992;28;20103;-66
2023/04/27 05:37:51;;;;;;;14.75;7.50;;;;;;;1.87;100.00;101952.03;5266586;28;20024;-65
2023/04/27 05:40:22;;;;;;;14.23;7.90;;;;;;;1.88;100.00;101951.16;5272310;28;20574;-66
2023/04/27 05:42:54;;;;;;;15.52;8.65;;;;;;;1.92;100.00;101952.81;5275616;28;20082;-65
2023/04/27 05:45:25;;;;;;;15.45;9.10;;;;;;;2.02;100.00;101958.72;5268342;28;20020;-65
2023/04/27 05:47:56;;;;;;;14.80;7.68;;;;;;;2.09;100.00;101955.06;5267050;28;20060;-66
2023/04/27 05:50:28;;;;;;;13.07;7.80;;;;;;;2.11;100.00;101953.25;5272895;28;20485;-66
2023/04/27 05:52:59;;;;;;;12.85;7.60;;;;;;;2.12;100.00;101960.22;5273268;28;20394;-65
2023/04/27 05:55:31;;;;;;;16.83;8.13;;;;;;;2.26;100.00;101959.03;5265017;28;20025;-66
2023/04/27 05:58:02;;;;;;;13.25;8.15;;;;;;;2.38;100.00;101955.25;5267451;28;20031;-66
2023/04/27 06:00:35;;;;;;;15.57;8.10;;;;;;;2.45;100.00;101956.84;5267363;28;20032;-66
2023/04/27 06:03:06;;;;;;;12.57;7.75;;;;;;;2.55;100.00;101948.69;5269162;28;20048;-66
2023/04/27 06:05:38;;;;;;;13.90;8.32;;;;;;;2.50;100.00;101953.19;5262958;28;20027;-66
2023/04/27 06:08:10;;;;;;;12.90;7.40;;;;;;;2.70;100.00;101954.44;5266002;28;20578;-66
2023/04/27 06:10:41;;;;;;;18.70;8.95;;;;;;;2.75;100.00;101957.84;5266046;28;20074;-66
2023/04/27 06:13:13;;;;;;;13.35;7.88;;;;;;;2.76;100.00;101954.28;5265329;28;20025;-66
2023/04/27 06:15:44;;;;;;;14.23;8.07;;;;;;;2.88;100.00;101956.59;5271677;28;20398;-66
2023/04/27 06:18:16;;;;;;;14.15;7.10;;;;;;;3.03;100.00;101950.06;5269441;28;20024;-66
2023/04/27 06:20:47;;;;;;;12.05;6.70;;;;;;;3.07;100.00;101949.06;5264600;28;20024;-65
2023/04/27 06:23:19;;;;;;;10.82;7.05;;;;;;;3.11;100.00;101944.59;5274939;28;20398;-66
2023/04/27 06:25:50;;;;;;;14.57;7.10;;;;;;;3.28;100.00;101944.09;5273471;28;20031;-66
2023/04/27 06:28:21;;;;;;;11.25;6.80;;;;;;;3.34;100.00;101944.78;5268482;28;20025;-66
2023/04/27 06:30:53;;;;;;;14.50;6.95;;;;;;;3.45;100.00;101935.69;5269620;28;20415;-66
2023/04/27 06:33:25;;;;;;;11.20;6.35;;;;;;;3.52;100.00;101940.75;5267473;28;20062;-66
2023/04/27 06:35:57;;;;;;;10.80;6.60;;;;;;;3.66;100.00;101948.28;5273409;28;20101;-66
2023/04/27 06:38:28;;;;;;;11.45;6.85;;;;;;;3.72;100.00;101955.13;5272160;28;20031;-65
2023/04/27 06:41:00;;;;;;;11.98;7.05;;;;;;;3.79;100.00;101951.38;5268588;28;20029;-66
2023/04/27 06:43:31;;;;;;;12.35;7.32;;;;;;;3.89;100.00;101954.59;5270859;28;20040;-66
2023/04/27 06:46:03;;;;;;;13.48;6.78;;;;;;;4.01;100.00;101956.00;5270559;28;20037;-68
2023/04/27 06:48:35;;;;;;;14.10;7.22;;;;;;;4.07;100.00;101955.84;5265073;28;20044;-65
2023/04/27 06:51:06;;;;;;;16.77;7.97;;;;;;;4.26;100.00;101948.19;5268266;28;20028;-66
2023/04/27 06:53:38;;;;;;;14.38;6.88;;;;;;;4.44;100.00;101947.56;5264949;28;20027;-65
2023/04/27 06:56:10;;;;;;;12.55;7.22;;;;;;;4.51;100.00;101945.59;5266560;28;20024;-65
2023/04/27 06:58:42;;;;;;;13.40;7.13;;;;;;;4.67;100.00;101949.44;5269657;28;20434;-65
2023/04/27 07:01:13;;;;;;;14.80;7.70;;;;;;;4.72;100.00;101944.00;5275371;28;20100;-66
2023/04/27 07:03:45;;;;;;;17.63;7.95;;;;;;;5.02;100.00;101939.41;5268460;28;20627;-66
2023/04/27 07:06:16;;;;;;;14.65;7.00;;;;;;;5.14;100.00;101940.78;5264763;28;20032;-66
2023/04/27 07:08:48;;;;;;;14.60;7.90;;;;;;;5.29;100.00;101934.03;5271369;28;20027;-66
2023/04/27 07:11:19;;;;;;;15.23;7.50;;;;;;;5.53;100.00;101929.63;5268276;28;20029;-66
2023/04/27 07:13:50;;;;;;;14.80;7.40;;;;;;;5.53;100.00;101931.41;5265554;28;20027;-65
2023/04/27 07:16:22;;;;;;;13.85;7.47;;;;;;;5.59;100.00;101925.88;5275609;28;20032;-66
2023/04/27 07:18:53;;;;;;;14.75;7.78;;;;;;;5.80;100.00;101930.34;5273862;28;20048;-65
2023/04/27 07:21:25;;;;;;;16.52;6.90;;;;;;;5.89;100.00;101930.00;5264578;28;20044;-66
2023/04/27 07:23:57;;;;;;;13.32;7.25;;;;;;;5.85;100.00;101935.47;5260063;28;20068;-66
2023/04/27 07:26:28;;;;;;;16.35;7.72;;;;;;;5.99;100.00;101938.47;5271258;28;20111;-65
2023/04/27 07:28:59;;;;;;;12.88;6.80;;;;;;;6.17;100.00;101941.28;5271021;28;20549;-66
2023/04/27 07:31:32;;;;;;;13.05;6.90;;;;;;;6.22;100.00;101944.63;5272483;28;20059;-66
2023/04/27 07:34:03;;;;;;;14.70;6.97;;;;;;;6.35;100.00;101939.66;5273775;28;20030;-66
2023/04/27 07:36:34;;;;;;;13.48;6.93;;;;;;;6.52;100.00;101938.97;5273382;28;20024;-66
2023/04/27 07:39:06;;;;;;;13.60;7.85;;;;;;;6.66;100.00;101936.63;5268726;28;20031;-66
2023/04/27 07:41:38;;;;;;;12.90;7.32;;;;;;;6.73;100.00;101937.22;5271934;28;20035;-66
2023/04/27 07:44:11;;;;;;;14.00;7.63;;;;;;;6.97;100.00;101933.50;5273335;28;20509;-66
2023/04/27 07:46:42;;;;;;;13.50;7.32;;;;;;;7.12;100.00;101926.66;5273082;28;20027;-66
2023/04/27 07:49:15;;;;;;;11.07;7.50;;;;;;;7.16;100.00;101933.56;5273019;28;20021;-66
2023/04/27 07:51:46;;;;;;;11.95;7.28;;;;;;;7.34;100.00;101933.66;5272344;28;20028;-66
2023/04/27 07:54:17;;;;;;;12.80;7.72;;;;;;;7.47;100.00;101932.16;5273146;28;20023;-66
2023/04/27 07:56:49;;;;;;;12.20;7.13;;;;;;;7.53;100.00;101928.34;5275100;28;20422;-66
2023/04/27 07:59:20;;;;;;;12.50;7.35;;;;;;;7.58;100.00;101929.88;5273532;28;20762;-66
2023/04/27 08:01:52;;;;;;;12.45;7.75;;;;;;;7.61;100.00;101924.44;5269488;28;20150;-65
2023/04/27 08:04:23;;;;;;;14.30;7.40;;;;;;;7.87;100.00;101932.94;5273923;28;20042;-66
2023/04/27 08:06:54;;;;;;;14.85;6.75;;;;;;;7.99;100.00;101929.69;5274219;28;20032;-66
2023/04/27 08:09:26;;;;;;;10.75;6.78;;;;;;;8.13;100.00;101928.16;5270557;28;20032;-66
2023/04/27 08:11:57;;;;;;;12.13;5.78;;;;;;;8.18;100.00;101923.50;5274267;28;20028;-66
2023/04/27 08:14:29;;;;;;;11.38;6.53;;;;;;;8.33;100.00;101929.84;5270688;28;20025;-66
2023/04/27 08:17:00;;;;;;;10.10;5.82;;;;;;;8.36;100.00;101935.00;5274826;28;20040;-66
2023/04/27 08:19:32;;;;;;;10.50;5.90;;;;;;;8.40;100.00;101936.59;5270004;28;20052;-66
2023/04/27 08:22:03;;;;;;;13.30;5.85;;;;;;;8.53;100.00;101939.50;5274077;28;20166;-65
2023/04/27 08:24:35;;;;;;;9.18;5.00;;;;;;;8.78;100.00;101936.47;5273392;28;20536;-66
2023/04/27 08:27:06;;;;;;;9.43;4.20;;;;;;;8.94;100.00;101929.44;5270468;28;20038;-66
2023/04/27 08:29:37;;;;;;;8.98;4.63;;;;;;;8.95;100.00;101917.81;5271039;28;20057;-66
2023/04/27 08:32:10;;;;;;;9.18;4.97;;;;;;;9.12;100.00;101908.09;5271691;28;20032;-66
2023/04/27 08:34:43;;;;;;;16.23;5.60;;;;;;;9.26;100.00;101904.69;5272600;28;20280;-66
2023/04/27 08:37:15;;;;;;;11.40;5.33;;;;;;;9.35;100.00;101897.06;5272717;28;20033;-65
2023/04/27 08:39:47;;;;;;;9.93;4.95;;;;;;;9.46;100.00;101891.16;5271150;28;20025;-65
2023/04/27 08:42:18;;;;;;;8.98;4.70;;;;;;;9.55;100.00;101890.66;5269867;28;20029;-66
2023/04/27 08:44:50;;;;;;;8.60;3.85;;;;;;;9.67;100.00;101898.91;5274635;28;20032;-66
2023/04/27 08:47:21;;;;;;;7.10;3.92;;;;;;;9.72;100.00;101894.16;5273577;28;20037;-65
2023/04/27 08:49:52;;;;;;;7.60;3.42;;;;;;;9.81;100.00;101898.97;5269877;28;20536;-65
2023/04/27 08:52:24;;;;;;;9.75;4.47;;;;;;;9.77;100.00;101900.09;5274054;28;20032;-66
2023/04/27 08:54:55;;;;;;;8.20;4.55;;;;;;;9.78;100.00;101904.50;5271507;28;20028;-65
2023/04/27 08:57:27;;;;;;;6.78;3.80;;;;;;;9.85;100.00;101905.00;5269498;28;20070;-66
2023/04/27 09:00:00;;;;;;;6.43;3.92;;;;;;;9.96;100.00;101903.44;5270233;28;20130;-66
2023/04/27 09:02:32;;;;;;;8.23;3.80;;;;;;;9.98;100.00;101904.22;5279610;28;20138;-65
2023/04/27 09:05:05;;;;;;;6.65;3.80;;;;;;;10.11;100.00;101901.72;5294536;28;20492;-65
2023/04/27 09:07:36;;;;;;;8.13;3.03;;;;;;;10.20;100.00;101906.53;5295127;28;20397;-65
2023/04/27 09:10:08;;;;;;;8.57;3.70;;;;;;;10.34;100.00;101899.56;5295267;28;20039;-65
2023/04/27 09:12:39;;;;;;;5.47;3.47;;;;;;;10.45;100.00;101902.44;5306468;28;20489;-66
2023/04/27 09:15:11;;;;;;;8.43;3.60;;;;;;;10.64;100.00;101904.00;5303185;28;20123;-65
2023/04/27 09:17:43;;;;;;;7.32;3.95;;;;;;;10.72;100.00;101909.72;5297975;28;20037;-65
2023/04/27 09:20:15;;;;;;;7.32;3.85;;;;;;;10.68;100.00;101903.75;5295483;28;20036;-65
2023/04/27 09:22:56;;;;;;;9.20;3.78;;;;;;;10.92;100.00;101889.84;5300401;28;20532;-65
2023/04/27 09:25:30;;;;;;;6.20;3.20;;;;;;;10.98;100.00;101897.50;5300559;28;20519;-65
2023/04/27 09:28:01;;;;;;;5.53;3.33;;;;;;;11.04;100.00;101897.09;5301966;28;20058;-65
2023/04/27 09:30:35;;;;;;;6.05;3.42;;;;;;;11.06;100.00;101892.53;5300005;28;20042;-65
2023/04/27 09:33:07;;;;;;;7.30;3.63;;;;;;;11.21;100.00;101893.38;5302661;28;20028;-65
2023/04/27 09:35:41;;;;;;;9.77;4.05;;;;;;;11.25;100.00;101881.56;5301506;28;20031;-65
2023/04/27 09:38:13;;;;;;;7.13;3.22;;;;;;;11.33;100.00;101884.63;5302880;28;20032;-66
2023/04/27 09:40:44;;;;;;;5.32;3.20;;;;;;;11.44;100.00;101889.28;5299210;28;20036;-66
2023/04/27 09:43:16;;;;;;;8.35;3.63;;;;;;;11.64;100.00;101888.00;5303864;28;20043;-65
2023/04/27 09:45:48;;;;;;;6.53;3.80;;;;;;;11.62;100.00;101886.38;5297836;28;20111;-66
2023/04/27 09:48:21;;;;;;;6.55;3.88;;;;;;;11.71;100.00;101888.47;5302040;28;20164;-65
2023/04/27 09:50:53;;;;;;;8.45;3.42;;;;;;;11.77;100.00;101880.03;5298475;28;20054;-66
2023/04/27 09:53:32;;;;;;;7.03;3.53;;;;;;;12.02;100.00;101881.13;5302282;28;20177;-65
2023/04/27 09:56:47;;;;;;;7.20;3.70;;;;;;;12.11;100.00;101875.19;5297706;28;20159;-66
2023/04/27 09:59:56;;;;;;;6.97;3.83;;;;;;;12.24;100.00;101870.72;5298262;28;20024;-66
2023/04/27 10:02:34;;;;;;;8.23;3.80;;;;;;;12.33;96.53;101862.09;5298490;27;20578;-66
2023/04/27 10:05:21;;;;;;;7.47;3.45;;;;;;;12.34;93.53;101869.16;5271025;28;20476;-65
2023/04/27 10:07:53;;;;;;;6.97;4.18;;;;;;;12.48;97.35;101880.72;5270160;28;20077;-66
2023/04/27 10:10:24;;;;;;;7.75;4.10;;;;;;;12.46;93.50;101863.91;5270405;28;20032;-66
2023/04/27 10:13:00;;;;;;;8.85;4.97;;;;;;;12.37;90.79;101862.75;5274112;28;20024;-65
2023/04/27 10:15:38;;;;;;;8.10;4.25;;;;;;;12.37;91.85;101860.06;5272551;28;20040;-66
2023/04/27 10:18:10;;;;;;;8.10;4.50;;;;;;;12.51;93.93;101868.00;5274250;28;20070;-66
2023/04/27 10:20:41;;;;;;;7.57;3.92;;;;;;;12.64;100.00;101872.53;5268926;28;20032;-65
2023/04/27 10:23:22;;;;;;;6.50;4.35;;;;;;;12.58;98.00;101875.59;5275509;28;20093;-66
2023/04/27 10:25:53;;;;;;;9.25;3.80;;;;;;;12.65;98.06;101880.44;5270996;28;20054;-66
2023/04/27 10:28:25;;;;;;;6.72;4.13;;;;;;;12.77;95.21;101873.41;5272936;28;20028;-66
2023/04/27 10:30:56;;;;;;;6.93;4.13;;;;;;;12.70;87.42;101877.47;5270263;28;20051;-66
2023/04/27 10:33:28;;;;;;;7.35;4.05;;;;;;;12.73;89.99;101872.75;5273094;28;20052;-66
2023/04/27 10:35:59;;;;;;;8.43;4.38;;;;;;;12.50;83.38;101878.81;5265396;28;20054;-66
2023/04/27 10:38:31;;;;;;;9.07;4.80;;;;;;;12.63;87.93;101871.66;5270310;28;20114;-65
2023/04/27 10:41:05;;;;;;;6.95;4.10;;;;;;;12.72;87.63;101863.00;5272274;28;20032;-65
2023/04/27 10:43:37;;;;;;;6.75;4.18;;;;;;;12.69;89.97;101859.66;5273681;28;20028;-66
2023/04/27 10:46:11;;;;;;;6.10;4.25;;;;;;;12.73;86.54;101864.72;5272470;28;20461;-66
2023/04/27 10:48:43;;;;;;;6.15;4.10;;;;;;;12.79;85.28;101852.72;5274178;28;20035;-66
2023/04/27 10:51:16;;;;;;;7.10;4.00;;;;;;;12.80;82.74;101854.41;5269583;28;20032;-66
2023/04/27 10:53:51;;;;;;;7.43;4.97;;;;;;;12.72;80.95;101852.28;5270509;28;20016;-66
2023/04/27 10:56:23;;;;;;;7.05;4.93;;;;;;;12.65;85.42;101847.44;5263276;28;20475;-66
2023/04/27 10:59:00;;;;;;;7.47;4.35;;;;;;;12.57;79.59;101847.13;5266055;28;21659;-65
2023/04/27 11:01:32;;;;;;;8.07;4.40;;;;;;;12.59;86.65;101843.38;5270671;28;20162;-66
2023/04/27 11:04:04;;;;;;;6.72;4.80;;;;;;;12.61;83.79;101836.09;5290309;28;20056;-66
2023/04/27 11:06:44;;;;;;;6.68;4.78;;;;;;;12.64;82.50;101833.22;5292293;28;20024;-66
2023/04/27 11:09:26;;;;;;;8.13;4.22;;;;;;;12.69;81.26;101831.06;5287224;28;20374;-66
2023/04/27 11:11:57;;;;;;;8.40;4.10;;;;;;;12.59;79.83;101818.44;5292486;28;20139;-66
2023/04/27 11:14:29;;;;;;;7.15;4.90;;;;;;;12.56;80.61;101822.19;5296832;28;20029;-66
2023/04/27 11:17:00;;;;;;;7.82;4.82;;;;;;;12.54;83.79;101814.25;5295574;28;20051;-65
2023/04/27 11:19:32;;;;;;;9.27;5.30;;;;;;;12.57;84.03;101818.53;5293431;28;20046;-66
2023/04/27 11:22:05;;;;;;;8.50;4.85;;;;;;;12.51;84.95;101819.81;5295340;28;20043;-66
2023/04/27 11:24:44;;;;;;;8.10;4.88;;;;;;;12.53;83.41;101817.88;5292739;28;20409;-66
2023/04/27 11:27:16;;;;;;;8.50;4.68;;;;;;;12.54;81.00;101818.75;5286922;28;20032;-66
2023/04/27 11:29:48;;;;;;;7.03;4.63;;;;;;;12.56;77.81;101803.44;5296035;28;20667;-66
2023/04/27 11:32:21;;;;;;;7.57;4.72;;;;;;;12.59;78.31;101818.44;5292018;28;20293;-66
2023/04/27 11:34:53;;;;;;;10.88;5.25;;;;;;;12.64;77.36;101806.44;5288210;28;20107;-66
2023/04/27 11:37:26;;;;;;;8.00;4.78;;;;;;;12.74;75.54;101801.28;5290679;28;20023;-66
2023/04/27 11:39:59;;;;;;;8.93;4.68;;;;;;;12.77;77.11;101808.25;5289335;28;20086;-66
2023/04/27 11:42:30;;;;;;;7.30;4.70;;;;;;;12.92;75.94;101813.41;5300503;28;20046;-66